logo
Rechercher aéroport 
image banner adimage banner adimage banner ad
image banner ad

SWGI - Gurupi

Situé à Gurupi, Brazil

ICAO - SWGI, IATA - GRP

Données fournies par Airmate  

Information générale

Coordonnées: S11°44'23" W49°7'56"
Élévation : 1148 feet MSL.
Variation magnétique : -21.433333333° East
Voir autres Aéroports à Tocatins

Données opérationnelles

Special qualification required
Heure actuelle UTC:
Heure actuelle locale:
Météo à : - ( 0 km )
METAR: PAKU 232147Z 12007KT 10SM R06/P6000FT BKN006 12/11 A3011
Voir NOTAMs / SUP AIP / TFR affectant cet aéroport [VIEW]
Fréquences de communication: [VIEW]

Pistes:

Identifiant RWYQFULongueur (ft)Largeur (ft)SurfaceLDA (ft)
126070492ASPH
306070492ASPH

Coordonnées de l'aéroport

Adresse: Gurupi Brazil

Vue satellite de SWGI